sensor_id;sensor_type;location;lat;lon;timestamp;P1;durP1;ratioP1;P2;durP2;ratioP2
69047;SDS011;56119;50.118;8.642;2022-12-18T00:00:56;50.93;;;21.30;;
69047;SDS011;56119;50.118;8.642;2022-12-18T00:03:22;52.83;;;21.87;;
69047;SDS011;56119;50.118;8.642;2022-12-18T00:05:48;57.40;;;23.40;;
69047;SDS011;56119;50.118;8.642;2022-12-18T00:08:15;53.53;;;21.83;;
69047;SDS011;56119;50.118;8.642;2022-12-18T00:10:41;54.07;;;22.03;;
69047;SDS011;56119;50.118;8.642;2022-12-18T00:13:07;51.13;;;20.87;;
69047;SDS011;56119;50.118;8.642;2022-12-18T00:15:34;44.40;;;18.97;;
69047;SDS011;56119;50.118;8.642;2022-12-18T00:18:00;50.93;;;21.17;;
69047;SDS011;56119;50.118;8.642;2022-12-18T00:20:25;42.83;;;18.90;;
69047;SDS011;56119;50.118;8.642;2022-12-18T00:22:52;46.67;;;19.97;;
69047;SDS011;56119;50.118;8.642;2022-12-18T00:25:18;50.43;;;19.93;;
69047;SDS011;56119;50.118;8.642;2022-12-18T00:27:44;48.97;;;20.30;;
69047;SDS011;56119;50.118;8.642;2022-12-18T00:30:10;51.40;;;20.87;;
69047;SDS011;56119;50.118;8.642;2022-12-18T00:32:36;47.97;;;19.60;;
69047;SDS011;56119;50.118;8.642;2022-12-18T00:35:03;49.33;;;19.50;;
69047;SDS011;56119;50.118;8.642;2022-12-18T00:37:29;50.33;;;20.37;;
69047;SDS011;56119;50.118;8.642;2022-12-18T00:39:55;54.90;;;21.17;;
69047;SDS011;56119;50.118;8.642;2022-12-18T00:42:21;52.70;;;19.83;;
69047;SDS011;56119;50.118;8.642;2022-12-18T00:45:05;56.40;;;21.47;;
69047;SDS011;56119;50.118;8.642;2022-12-18T00:47:31;60.73;;;21.83;;
69047;SDS011;56119;50.118;8.642;2022-12-18T00:49:57;52.97;;;21.57;;
69047;SDS011;56119;50.118;8.642;2022-12-18T00:52:23;56.60;;;21.07;;
69047;SDS011;56119;50.118;8.642;2022-12-18T00:54:49;58.67;;;22.30;;
69047;SDS011;56119;50.118;8.642;2022-12-18T00:57:15;54.63;;;22.63;;
69047;SDS011;56119;50.118;8.642;2022-12-18T00:59:41;54.20;;;22.43;;
69047;SDS011;56119;50.118;8.642;2022-12-18T01:02:07;55.77;;;21.90;;
69047;SDS011;56119;50.118;8.642;2022-12-18T01:04:33;46.60;;;20.23;;
69047;SDS011;56119;50.118;8.642;2022-12-18T01:06:59;49.07;;;20.47;;
69047;SDS011;56119;50.118;8.642;2022-12-18T01:09:25;44.20;;;18.23;;
69047;SDS011;56119;50.118;8.642;2022-12-18T01:11:51;45.83;;;19.97;;
69047;SDS011;56119;50.118;8.642;2022-12-18T01:14:17;44.77;;;19.20;;
69047;SDS011;56119;50.118;8.642;2022-12-18T01:16:43;47.37;;;20.27;;
69047;SDS011;56119;50.118;8.642;2022-12-18T01:19:09;43.23;;;19.47;;
69047;SDS011;56119;50.118;8.642;2022-12-18T01:21:35;49.30;;;20.60;;
69047;SDS011;56119;50.118;8.642;2022-12-18T01:24:01;38.07;;;16.83;;
69047;SDS011;56119;50.118;8.642;2022-12-18T01:26:27;45.40;;;18.23;;
69047;SDS011;56119;50.118;8.642;2022-12-18T01:28:54;43.73;;;18.97;;
69047;SDS011;56119;50.118;8.642;2022-12-18T01:31:22;44.10;;;17.07;;
69047;SDS011;56119;50.118;8.642;2022-12-18T01:33:48;43.80;;;18.83;;
69047;SDS011;56119;50.118;8.642;2022-12-18T01:36:18;41.97;;;17.77;;
69047;SDS011;56119;50.118;8.642;2022-12-18T01:38:44;41.77;;;17.80;;
69047;SDS011;56119;50.118;8.642;2022-12-18T01:41:10;46.37;;;18.83;;
69047;SDS011;56119;50.118;8.642;2022-12-18T01:43:47;48.17;;;19.77;;
69047;SDS011;56119;50.118;8.642;2022-12-18T01:46:14;43.30;;;19.47;;
69047;SDS011;56119;50.118;8.642;2022-12-18T01:48:40;52.40;;;19.53;;
69047;SDS011;56119;50.118;8.642;2022-12-18T01:51:07;48.53;;;19.57;;
69047;SDS011;56119;50.118;8.642;2022-12-18T01:53:34;41.93;;;19.13;;
69047;SDS011;56119;50.118;8.642;2022-12-18T01:56:00;47.07;;;18.47;;
69047;SDS011;56119;50.118;8.642;2022-12-18T01:58:50;45.87;;;18.77;;
69047;SDS011;56119;50.118;8.642;2022-12-18T02:01:12;40.93;;;16.80;;
69047;SDS011;56119;50.118;8.642;2022-12-18T02:03:40;47.13;;;18.83;;
69047;SDS011;56119;50.118;8.642;2022-12-18T02:08:35;44.77;;;17.77;;
69047;SDS011;56119;50.118;8.642;2022-12-18T02:13:36;41.70;;;18.07;;
69047;SDS011;56119;50.118;8.642;2022-12-18T02:16:24;44.13;;;18.47;;
69047;SDS011;56119;50.118;8.642;2022-12-18T02:18:53;51.60;;;20.07;;
69047;SDS011;56119;50.118;8.642;2022-12-18T02:21:36;45.30;;;18.20;;
69047;SDS011;56119;50.118;8.642;2022-12-18T02:24:27;50.27;;;19.00;;
69047;SDS011;56119;50.118;8.642;2022-12-18T02:26:56;49.30;;;18.70;;
69047;SDS011;56119;50.118;8.642;2022-12-18T02:31:52;49.43;;;19.60;;
69047;SDS011;56119;50.118;8.642;2022-12-18T02:34:20;49.27;;;19.87;;
69047;SDS011;56119;50.118;8.642;2022-12-18T02:36:47;45.07;;;18.70;;
69047;SDS011;56119;50.118;8.642;2022-12-18T02:39:15;50.60;;;21.20;;
69047;SDS011;56119;50.118;8.642;2022-12-18T02:41:41;44.00;;;20.30;;
69047;SDS011;56119;50.118;8.642;2022-12-18T02:44:09;45.33;;;18.47;;
69047;SDS011;56119;50.118;8.642;2022-12-18T02:46:45;54.03;;;20.13;;
69047;SDS011;56119;50.118;8.642;2022-12-18T02:49:17;49.13;;;20.50;;
69047;SDS011;56119;50.118;8.642;2022-12-18T02:51:59;50.13;;;19.77;;
69047;SDS011;56119;50.118;8.642;2022-12-18T02:54:36;44.77;;;19.80;;
69047;SDS011;56119;50.118;8.642;2022-12-18T02:57:15;51.33;;;20.47;;
69047;SDS011;56119;50.118;8.642;2022-12-18T02:59:53;51.70;;;19.23;;
69047;SDS011;56119;50.118;8.642;2022-12-18T03:05:19;52.60;;;20.73;;
69047;SDS011;56119;50.118;8.642;2022-12-18T03:07:49;40.10;;;18.53;;
69047;SDS011;56119;50.118;8.642;2022-12-18T03:10:16;45.47;;;18.47;;
69047;SDS011;56119;50.118;8.642;2022-12-18T03:12:47;45.87;;;19.60;;
69047;SDS011;56119;50.118;8.642;2022-12-18T03:15:19;45.77;;;19.87;;
69047;SDS011;56119;50.118;8.642;2022-12-18T03:17:48;47.03;;;19.77;;
69047;SDS011;56119;50.118;8.642;2022-12-18T03:20:17;46.10;;;18.77;;
69047;SDS011;56119;50.118;8.642;2022-12-18T03:22:44;48.30;;;19.87;;
69047;SDS011;56119;50.118;8.642;2022-12-18T03:25:12;47.87;;;19.80;;
69047;SDS011;56119;50.118;8.642;2022-12-18T03:27:39;49.43;;;19.50;;
69047;SDS011;56119;50.118;8.642;2022-12-18T03:30:10;45.93;;;19.40;;
69047;SDS011;56119;50.118;8.642;2022-12-18T03:35:24;48.93;;;19.57;;
69047;SDS011;56119;50.118;8.642;2022-12-18T03:37:52;41.80;;;18.53;;
69047;SDS011;56119;50.118;8.642;2022-12-18T03:40:19;46.17;;;18.33;;
69047;SDS011;56119;50.118;8.642;2022-12-18T03:42:49;41.40;;;18.47;;
69047;SDS011;56119;50.118;8.642;2022-12-18T03:45:27;41.90;;;18.80;;
69047;SDS011;56119;50.118;8.642;2022-12-18T03:48:13;41.77;;;18.50;;
69047;SDS011;56119;50.118;8.642;2022-12-18T03:50:45;43.43;;;17.60;;
69047;SDS011;56119;50.118;8.642;2022-12-18T03:55:57;46.03;;;19.10;;
69047;SDS011;56119;50.118;8.642;2022-12-18T03:58:24;42.13;;;18.67;;
69047;SDS011;56119;50.118;8.642;2022-12-18T04:00:51;45.37;;;19.33;;
69047;SDS011;56119;50.118;8.642;2022-12-18T04:03:18;42.83;;;18.67;;
69047;SDS011;56119;50.118;8.642;2022-12-18T04:05:46;45.93;;;19.13;;
69047;SDS011;56119;50.118;8.642;2022-12-18T04:08:13;48.33;;;18.73;;
69047;SDS011;56119;50.118;8.642;2022-12-18T04:10:40;49.50;;;18.90;;
69047;SDS011;56119;50.118;8.642;2022-12-18T04:13:06;45.33;;;19.30;;
69047;SDS011;56119;50.118;8.642;2022-12-18T04:15:33;44.50;;;17.37;;
69047;SDS011;56119;50.118;8.642;2022-12-18T04:18:00;40.83;;;19.00;;
69047;SDS011;56119;50.118;8.642;2022-12-18T04:20:26;47.77;;;19.17;;
69047;SDS011;56119;50.118;8.642;2022-12-18T04:22:52;39.10;;;18.23;;
69047;SDS011;56119;50.118;8.642;2022-12-18T04:25:18;42.67;;;18.30;;
69047;SDS011;56119;50.118;8.642;2022-12-18T04:27:44;41.43;;;17.90;;
69047;SDS011;56119;50.118;8.642;2022-12-18T04:30:10;42.87;;;18.73;;
69047;SDS011;56119;50.118;8.642;2022-12-18T04:32:36;39.80;;;18.00;;
69047;SDS011;56119;50.118;8.642;2022-12-18T04:35:02;37.33;;;17.33;;
69047;SDS011;56119;50.118;8.642;2022-12-18T04:37:29;43.70;;;18.97;;
69047;SDS011;56119;50.118;8.642;2022-12-18T04:39:55;42.73;;;18.63;;
69047;SDS011;56119;50.118;8.642;2022-12-18T04:42:21;43.60;;;17.63;;
69047;SDS011;56119;50.118;8.642;2022-12-18T04:44:47;42.17;;;19.00;;
69047;SDS011;56119;50.118;8.642;2022-12-18T04:47:13;38.07;;;17.07;;
69047;SDS011;56119;50.118;8.642;2022-12-18T04:49:39;43.70;;;18.47;;
69047;SDS011;56119;50.118;8.642;2022-12-18T04:52:05;42.57;;;19.37;;
69047;SDS011;56119;50.118;8.642;2022-12-18T04:54:32;40.83;;;18.30;;
69047;SDS011;56119;50.118;8.642;2022-12-18T04:56:58;44.50;;;19.30;;
69047;SDS011;56119;50.118;8.642;2022-12-18T04:59:24;39.90;;;18.63;;
69047;SDS011;56119;50.118;8.642;2022-12-18T05:01:50;49.60;;;20.80;;
69047;SDS011;56119;50.118;8.642;2022-12-18T05:04:16;42.00;;;18.10;;
69047;SDS011;56119;50.118;8.642;2022-12-18T05:06:42;44.50;;;19.50;;
69047;SDS011;56119;50.118;8.642;2022-12-18T05:09:07;43.73;;;18.97;;
69047;SDS011;56119;50.118;8.642;2022-12-18T05:11:33;46.67;;;19.43;;
69047;SDS011;56119;50.118;8.642;2022-12-18T05:13:59;42.17;;;18.20;;
69047;SDS011;56119;50.118;8.642;2022-12-18T05:16:25;43.90;;;19.23;;
69047;SDS011;56119;50.118;8.642;2022-12-18T05:18:51;42.07;;;18.07;;
69047;SDS011;56119;50.118;8.642;2022-12-18T05:21:17;41.20;;;18.03;;
69047;SDS011;56119;50.118;8.642;2022-12-18T05:23:43;42.23;;;19.13;;
69047;SDS011;56119;50.118;8.642;2022-12-18T05:26:09;48.17;;;19.30;;
69047;SDS011;56119;50.118;8.642;2022-12-18T05:28:39;44.63;;;19.70;;
69047;SDS011;56119;50.118;8.642;2022-12-18T05:31:05;43.30;;;20.17;;
69047;SDS011;56119;50.118;8.642;2022-12-18T05:33:32;46.33;;;20.27;;
69047;SDS011;56119;50.118;8.642;2022-12-18T05:35:59;41.67;;;21.03;;
69047;SDS011;56119;50.118;8.642;2022-12-18T05:38:26;45.67;;;20.93;;
69047;SDS011;56119;50.118;8.642;2022-12-18T05:40:52;43.37;;;20.33;;
69047;SDS011;56119;50.118;8.642;2022-12-18T05:43:19;49.47;;;21.13;;
69047;SDS011;56119;50.118;8.642;2022-12-18T05:45:46;46.60;;;20.43;;
69047;SDS011;56119;50.118;8.642;2022-12-18T05:48:12;43.07;;;20.93;;
69047;SDS011;56119;50.118;8.642;2022-12-18T05:50:39;47.77;;;21.03;;
69047;SDS011;56119;50.118;8.642;2022-12-18T05:53:06;47.27;;;20.83;;
69047;SDS011;56119;50.118;8.642;2022-12-18T05:55:33;44.43;;;19.73;;
69047;SDS011;56119;50.118;8.642;2022-12-18T05:57:59;47.70;;;21.43;;
69047;SDS011;56119;50.118;8.642;2022-12-18T06:00:25;45.47;;;20.17;;
69047;SDS011;56119;50.118;8.642;2022-12-18T06:02:51;47.23;;;20.57;;
69047;SDS011;56119;50.118;8.642;2022-12-18T06:05:17;46.33;;;20.10;;
69047;SDS011;56119;50.118;8.642;2022-12-18T06:07:43;40.83;;;19.07;;
69047;SDS011;56119;50.118;8.642;2022-12-18T06:10:09;50.03;;;19.60;;
69047;SDS011;56119;50.118;8.642;2022-12-18T06:12:36;40.77;;;20.03;;
69047;SDS011;56119;50.118;8.642;2022-12-18T06:15:02;40.47;;;18.50;;
69047;SDS011;56119;50.118;8.642;2022-12-18T06:17:32;48.23;;;20.47;;
69047;SDS011;56119;50.118;8.642;2022-12-18T06:19:58;43.07;;;20.13;;
69047;SDS011;56119;50.118;8.642;2022-12-18T06:22:25;42.83;;;19.53;;
69047;SDS011;56119;50.118;8.642;2022-12-18T06:24:51;41.57;;;19.47;;
69047;SDS011;56119;50.118;8.642;2022-12-18T06:27:17;41.07;;;19.43;;
69047;SDS011;56119;50.118;8.642;2022-12-18T06:29:43;44.43;;;19.23;;
69047;SDS011;56119;50.118;8.642;2022-12-18T06:32:09;40.57;;;19.70;;
69047;SDS011;56119;50.118;8.642;2022-12-18T06:34:36;40.90;;;18.30;;
69047;SDS011;56119;50.118;8.642;2022-12-18T06:37:03;38.40;;;17.63;;
69047;SDS011;56119;50.118;8.642;2022-12-18T06:39:29;40.13;;;17.67;;
69047;SDS011;56119;50.118;8.642;2022-12-18T06:41:55;41.43;;;19.13;;
69047;SDS011;56119;50.118;8.642;2022-12-18T06:44:21;43.80;;;19.60;;
69047;SDS011;56119;50.118;8.642;2022-12-18T06:46:47;44.77;;;19.47;;
69047;SDS011;56119;50.118;8.642;2022-12-18T06:49:13;42.90;;;20.60;;
69047;SDS011;56119;50.118;8.642;2022-12-18T06:51:40;42.50;;;19.80;;
69047;SDS011;56119;50.118;8.642;2022-12-18T06:54:07;44.00;;;19.30;;
69047;SDS011;56119;50.118;8.642;2022-12-18T06:56:33;38.90;;;19.60;;
69047;SDS011;56119;50.118;8.642;2022-12-18T06:58:58;40.73;;;19.23;;
69047;SDS011;56119;50.118;8.642;2022-12-18T07:01:24;43.93;;;19.33;;
69047;SDS011;56119;50.118;8.642;2022-12-18T07:03:54;45.63;;;20.17;;
69047;SDS011;56119;50.118;8.642;2022-12-18T07:06:21;41.27;;;19.73;;
69047;SDS011;56119;50.118;8.642;2022-12-18T07:08:48;45.10;;;19.33;;
69047;SDS011;56119;50.118;8.642;2022-12-18T07:11:14;46.57;;;20.07;;
69047;SDS011;56119;50.118;8.642;2022-12-18T07:13:40;40.43;;;19.20;;
69047;SDS011;56119;50.118;8.642;2022-12-18T07:16:08;44.07;;;20.23;;
69047;SDS011;56119;50.118;8.642;2022-12-18T07:18:34;44.73;;;18.93;;
69047;SDS011;56119;50.118;8.642;2022-12-18T07:21:03;40.83;;;17.60;;
69047;SDS011;56119;50.118;8.642;2022-12-18T07:23:30;39.67;;;18.57;;
69047;SDS011;56119;50.118;8.642;2022-12-18T07:26:00;40.57;;;18.77;;
69047;SDS011;56119;50.118;8.642;2022-12-18T07:28:26;38.00;;;18.40;;
69047;SDS011;56119;50.118;8.642;2022-12-18T07:30:52;47.17;;;21.37;;
69047;SDS011;56119;50.118;8.642;2022-12-18T07:33:18;41.63;;;18.97;;
69047;SDS011;56119;50.118;8.642;2022-12-18T07:35:44;43.07;;;19.00;;
69047;SDS011;56119;50.118;8.642;2022-12-18T07:38:09;40.77;;;19.83;;
69047;SDS011;56119;50.118;8.642;2022-12-18T07:40:35;45.67;;;20.30;;
69047;SDS011;56119;50.118;8.642;2022-12-18T07:43:01;48.67;;;21.60;;
69047;SDS011;56119;50.118;8.642;2022-12-18T07:45:27;49.83;;;19.60;;
69047;SDS011;56119;50.118;8.642;2022-12-18T07:47:55;48.00;;;19.70;;
69047;SDS011;56119;50.118;8.642;2022-12-18T07:50:21;46.07;;;20.27;;
69047;SDS011;56119;50.118;8.642;2022-12-18T07:52:47;49.93;;;21.10;;
69047;SDS011;56119;50.118;8.642;2022-12-18T07:55:13;45.37;;;20.20;;
69047;SDS011;56119;50.118;8.642;2022-12-18T07:57:39;50.50;;;21.07;;
69047;SDS011;56119;50.118;8.642;2022-12-18T08:00:05;43.57;;;20.00;;
69047;SDS011;56119;50.118;8.642;2022-12-18T08:02:31;45.33;;;20.07;;
69047;SDS011;56119;50.118;8.642;2022-12-18T08:04:57;48.97;;;21.67;;
69047;SDS011;56119;50.118;8.642;2022-12-18T08:07:23;46.47;;;20.77;;
69047;SDS011;56119;50.118;8.642;2022-12-18T08:09:49;45.47;;;20.57;;
69047;SDS011;56119;50.118;8.642;2022-12-18T08:12:15;51.73;;;22.27;;
69047;SDS011;56119;50.118;8.642;2022-12-18T08:14:41;47.67;;;20.93;;
69047;SDS011;56119;50.118;8.642;2022-12-18T08:17:07;44.97;;;20.40;;
69047;SDS011;56119;50.118;8.642;2022-12-18T08:19:33;45.87;;;21.70;;
69047;SDS011;56119;50.118;8.642;2022-12-18T08:21:59;45.63;;;21.23;;
69047;SDS011;56119;50.118;8.642;2022-12-18T08:24:25;43.60;;;22.13;;
69047;SDS011;56119;50.118;8.642;2022-12-18T08:26:51;54.97;;;22.83;;
69047;SDS011;56119;50.118;8.642;2022-12-18T08:29:17;48.73;;;20.97;;
69047;SDS011;56119;50.118;8.642;2022-12-18T08:31:43;46.77;;;20.33;;
69047;SDS011;56119;50.118;8.642;2022-12-18T08:34:08;42.17;;;21.83;;
69047;SDS011;56119;50.118;8.642;2022-12-18T08:36:34;43.03;;;19.43;;
69047;SDS011;56119;50.118;8.642;2022-12-18T08:39:00;43.70;;;19.83;;
69047;SDS011;56119;50.118;8.642;2022-12-18T08:41:26;41.23;;;19.37;;
69047;SDS011;56119;50.118;8.642;2022-12-18T08:43:52;40.40;;;20.43;;
69047;SDS011;56119;50.118;8.642;2022-12-18T08:46:38;45.50;;;21.13;;
69047;SDS011;56119;50.118;8.642;2022-12-18T08:49:05;47.33;;;20.53;;
69047;SDS011;56119;50.118;8.642;2022-12-18T08:51:31;49.30;;;22.80;;
69047;SDS011;56119;50.118;8.642;2022-12-18T08:53:57;42.97;;;21.13;;
69047;SDS011;56119;50.118;8.642;2022-12-18T08:56:23;41.23;;;21.13;;
69047;SDS011;56119;50.118;8.642;2022-12-18T08:58:53;41.90;;;20.60;;
69047;SDS011;56119;50.118;8.642;2022-12-18T09:01:19;45.17;;;23.23;;
69047;SDS011;56119;50.118;8.642;2022-12-18T09:03:45;46.77;;;24.20;;
69047;SDS011;56119;50.118;8.642;2022-12-18T09:06:13;44.37;;;22.37;;
69047;SDS011;56119;50.118;8.642;2022-12-18T09:08:40;50.27;;;25.43;;
69047;SDS011;56119;50.118;8.642;2022-12-18T09:11:10;42.73;;;23.63;;
69047;SDS011;56119;50.118;8.642;2022-12-18T09:13:37;46.10;;;24.50;;
69047;SDS011;56119;50.118;8.642;2022-12-18T09:16:03;51.00;;;25.93;;
69047;SDS011;56119;50.118;8.642;2022-12-18T09:18:29;54.53;;;26.90;;
69047;SDS011;56119;50.118;8.642;2022-12-18T09:20:55;55.07;;;27.23;;
69047;SDS011;56119;50.118;8.642;2022-12-18T09:23:21;53.50;;;27.60;;
69047;SDS011;56119;50.118;8.642;2022-12-18T09:25:47;54.13;;;29.30;;
69047;SDS011;56119;50.118;8.642;2022-12-18T09:28:14;51.20;;;27.20;;
69047;SDS011;56119;50.118;8.642;2022-12-18T09:30:41;48.50;;;26.93;;
69047;SDS011;56119;50.118;8.642;2022-12-18T09:33:07;50.33;;;26.47;;
69047;SDS011;56119;50.118;8.642;2022-12-18T09:35:39;54.13;;;27.70;;
69047;SDS011;56119;50.118;8.642;2022-12-18T09:38:06;54.10;;;27.43;;
69047;SDS011;56119;50.118;8.642;2022-12-18T09:40:34;52.33;;;27.00;;
69047;SDS011;56119;50.118;8.642;2022-12-18T09:43:03;53.07;;;28.13;;
69047;SDS011;56119;50.118;8.642;2022-12-18T09:45:35;57.13;;;29.30;;
69047;SDS011;56119;50.118;8.642;2022-12-18T09:48:04;48.67;;;26.90;;
69047;SDS011;56119;50.118;8.642;2022-12-18T09:50:33;49.53;;;27.70;;
69047;SDS011;56119;50.118;8.642;2022-12-18T09:53:06;55.07;;;28.50;;
69047;SDS011;56119;50.118;8.642;2022-12-18T09:55:36;52.80;;;27.77;;
69047;SDS011;56119;50.118;8.642;2022-12-18T10:00:35;50.07;;;28.30;;
69047;SDS011;56119;50.118;8.642;2022-12-18T10:03:08;55.63;;;28.47;;
69047;SDS011;56119;50.118;8.642;2022-12-18T10:08:24;55.03;;;28.37;;
69047;SDS011;56119;50.118;8.642;2022-12-18T10:10:55;58.67;;;28.67;;
69047;SDS011;56119;50.118;8.642;2022-12-18T10:13:24;57.57;;;28.93;;
69047;SDS011;56119;50.118;8.642;2022-12-18T10:22:29;55.17;;;29.00;;
69047;SDS011;56119;50.118;8.642;2022-12-18T10:24:23;53.13;;;27.30;;
69047;SDS011;56119;50.118;8.642;2022-12-18T10:26:51;56.70;;;28.90;;
69047;SDS011;56119;50.118;8.642;2022-12-18T10:29:18;55.40;;;29.00;;
69047;SDS011;56119;50.118;8.642;2022-12-18T10:31:44;55.50;;;28.37;;
69047;SDS011;56119;50.118;8.642;2022-12-18T10:34:11;56.43;;;27.50;;
69047;SDS011;56119;50.118;8.642;2022-12-18T10:36:40;51.53;;;29.37;;
69047;SDS011;56119;50.118;8.642;2022-12-18T10:39:20;55.83;;;28.27;;
69047;SDS011;56119;50.118;8.642;2022-12-18T10:41:47;58.03;;;27.43;;
69047;SDS011;56119;50.118;8.642;2022-12-18T10:44:23;53.97;;;27.87;;
69047;SDS011;56119;50.118;8.642;2022-12-18T10:46:53;52.17;;;26.63;;
69047;SDS011;56119;50.118;8.642;2022-12-18T10:51:46;58.47;;;29.17;;
69047;SDS011;56119;50.118;8.642;2022-12-18T10:54:14;58.63;;;28.07;;
69047;SDS011;56119;50.118;8.642;2022-12-18T10:56:41;59.67;;;29.63;;
69047;SDS011;56119;50.118;8.642;2022-12-18T10:59:11;60.17;;;29.67;;
69047;SDS011;56119;50.118;8.642;2022-12-18T11:01:53;60.10;;;29.20;;
69047;SDS011;56119;50.118;8.642;2022-12-18T11:04:24;60.20;;;28.10;;
69047;SDS011;56119;50.118;8.642;2022-12-18T11:07:01;57.33;;;28.63;;
69047;SDS011;56119;50.118;8.642;2022-12-18T11:09:37;63.77;;;28.67;;
69047;SDS011;56119;50.118;8.642;2022-12-18T11:12:05;61.10;;;27.80;;
69047;SDS011;56119;50.118;8.642;2022-12-18T11:14:49;56.97;;;29.07;;
69047;SDS011;56119;50.118;8.642;2022-12-18T11:19:55;55.80;;;27.00;;
69047;SDS011;56119;50.118;8.642;2022-12-18T11:25:01;62.70;;;28.37;;
69047;SDS011;56119;50.118;8.642;2022-12-18T11:27:27;58.90;;;27.87;;
69047;SDS011;56119;50.118;8.642;2022-12-18T11:30:06;62.93;;;28.37;;
69047;SDS011;56119;50.118;8.642;2022-12-18T11:32:38;58.07;;;28.00;;
69047;SDS011;56119;50.118;8.642;2022-12-18T11:35:13;59.50;;;28.17;;
69047;SDS011;56119;50.118;8.642;2022-12-18T11:37:41;61.80;;;29.00;;
69047;SDS011;56119;50.118;8.642;2022-12-18T11:40:11;56.40;;;28.57;;
69047;SDS011;56119;50.118;8.642;2022-12-18T11:42:41;57.33;;;29.60;;
69047;SDS011;56119;50.118;8.642;2022-12-18T11:50:11;64.47;;;30.13;;
69047;SDS011;56119;50.118;8.642;2022-12-18T11:52:39;68.27;;;29.53;;
69047;SDS011;56119;50.118;8.642;2022-12-18T11:55:13;66.43;;;30.10;;
69047;SDS011;56119;50.118;8.642;2022-12-18T12:00:24;65.77;;;29.53;;
69047;SDS011;56119;50.118;8.642;2022-12-18T12:05:19;60.57;;;28.37;;
69047;SDS011;56119;50.118;8.642;2022-12-18T12:07:55;61.07;;;29.10;;
69047;SDS011;56119;50.118;8.642;2022-12-18T12:18:14;60.80;;;28.47;;
69047;SDS011;56119;50.118;8.642;2022-12-18T12:26:18;53.03;;;27.33;;
69047;SDS011;56119;50.118;8.642;2022-12-18T12:28:52;65.63;;;30.40;;
69047;SDS011;56119;50.118;8.642;2022-12-18T12:34:22;63.37;;;28.03;;
69047;SDS011;56119;50.118;8.642;2022-12-18T12:39:19;65.03;;;28.83;;
69047;SDS011;56119;50.118;8.642;2022-12-18T12:41:46;58.63;;;28.90;;
69047;SDS011;56119;50.118;8.642;2022-12-18T12:44:32;63.07;;;27.23;;
69047;SDS011;56119;50.118;8.642;2022-12-18T12:47:00;62.43;;;29.83;;
69047;SDS011;56119;50.118;8.642;2022-12-18T12:49:29;62.70;;;29.20;;
69047;SDS011;56119;50.118;8.642;2022-12-18T12:52:03;60.10;;;29.40;;
69047;SDS011;56119;50.118;8.642;2022-12-18T12:54:30;59.47;;;27.33;;
69047;SDS011;56119;50.118;8.642;2022-12-18T13:02:08;61.10;;;26.90;;
69047;SDS011;56119;50.118;8.642;2022-12-18T13:04:42;62.23;;;27.80;;
69047;SDS011;56119;50.118;8.642;2022-12-18T13:13:01;66.67;;;28.13;;
69047;SDS011;56119;50.118;8.642;2022-12-18T13:15:47;64.10;;;28.83;;
69047;SDS011;56119;50.118;8.642;2022-12-18T13:21:20;61.17;;;28.40;;
69047;SDS011;56119;50.118;8.642;2022-12-18T13:23:27;60.97;;;27.37;;
69047;SDS011;56119;50.118;8.642;2022-12-18T13:33:57;58.53;;;27.00;;
69047;SDS011;56119;50.118;8.642;2022-12-18T13:36:35;62.47;;;29.80;;
69047;SDS011;56119;50.118;8.642;2022-12-18T13:41:40;60.67;;;27.77;;
69047;SDS011;56119;50.118;8.642;2022-12-18T13:46:48;58.53;;;26.53;;
69047;SDS011;56119;50.118;8.642;2022-12-18T13:49:19;62.53;;;27.43;;
69047;SDS011;56119;50.118;8.642;2022-12-18T13:51:47;67.27;;;28.83;;
69047;SDS011;56119;50.118;8.642;2022-12-18T13:56:43;62.27;;;28.13;;
69047;SDS011;56119;50.118;8.642;2022-12-18T13:59:16;63.23;;;27.63;;
69047;SDS011;56119;50.118;8.642;2022-12-18T14:01:44;58.93;;;26.20;;
69047;SDS011;56119;50.118;8.642;2022-12-18T14:04:20;58.97;;;27.50;;
69047;SDS011;56119;50.118;8.642;2022-12-18T14:06:47;57.23;;;27.47;;
69047;SDS011;56119;50.118;8.642;2022-12-18T14:09:15;57.37;;;27.27;;
69047;SDS011;56119;50.118;8.642;2022-12-18T14:11:46;59.53;;;26.83;;
69047;SDS011;56119;50.118;8.642;2022-12-18T14:14:21;61.67;;;27.33;;
69047;SDS011;56119;50.118;8.642;2022-12-18T14:16:47;56.97;;;25.87;;
69047;SDS011;56119;50.118;8.642;2022-12-18T14:19:14;64.37;;;27.60;;
69047;SDS011;56119;50.118;8.642;2022-12-18T14:21:45;59.30;;;25.93;;
69047;SDS011;56119;50.118;8.642;2022-12-18T14:26:40;56.30;;;26.27;;
69047;SDS011;56119;50.118;8.642;2022-12-18T14:31:44;58.00;;;26.53;;
69047;SDS011;56119;50.118;8.642;2022-12-18T14:34:16;64.90;;;28.17;;
69047;SDS011;56119;50.118;8.642;2022-12-18T14:36:51;61.90;;;27.80;;
69047;SDS011;56119;50.118;8.642;2022-12-18T14:39:17;61.73;;;27.00;;
69047;SDS011;56119;50.118;8.642;2022-12-18T14:41:44;59.67;;;25.47;;
69047;SDS011;56119;50.118;8.642;2022-12-18T14:44:11;62.17;;;26.07;;
69047;SDS011;56119;50.118;8.642;2022-12-18T14:46:38;58.40;;;26.30;;
69047;SDS011;56119;50.118;8.642;2022-12-18T14:49:18;59.70;;;25.97;;
69047;SDS011;56119;50.118;8.642;2022-12-18T14:51:47;57.20;;;27.60;;
69047;SDS011;56119;50.118;8.642;2022-12-18T14:54:15;58.27;;;26.40;;
69047;SDS011;56119;50.118;8.642;2022-12-18T14:56:49;56.87;;;26.37;;
69047;SDS011;56119;50.118;8.642;2022-12-18T14:59:20;57.13;;;26.10;;
69047;SDS011;56119;50.118;8.642;2022-12-18T15:04:32;61.87;;;26.33;;
69047;SDS011;56119;50.118;8.642;2022-12-18T15:09:30;60.67;;;26.20;;
69047;SDS011;56119;50.118;8.642;2022-12-18T15:11:57;56.60;;;25.23;;
69047;SDS011;56119;50.118;8.642;2022-12-18T15:16:56;56.60;;;26.13;;
69047;SDS011;56119;50.118;8.642;2022-12-18T15:19:27;62.10;;;26.57;;
69047;SDS011;56119;50.118;8.642;2022-12-18T15:21:57;60.53;;;27.63;;
69047;SDS011;56119;50.118;8.642;2022-12-18T15:24:26;60.03;;;27.43;;
69047;SDS011;56119;50.118;8.642;2022-12-18T15:26:52;63.23;;;28.90;;
69047;SDS011;56119;50.118;8.642;2022-12-18T15:29:20;63.20;;;28.83;;
69047;SDS011;56119;50.118;8.642;2022-12-18T15:31:57;59.83;;;28.07;;
69047;SDS011;56119;50.118;8.642;2022-12-18T15:34:24;61.50;;;27.60;;
69047;SDS011;56119;50.118;8.642;2022-12-18T15:36:51;62.10;;;25.93;;
69047;SDS011;56119;50.118;8.642;2022-12-18T15:39:17;62.50;;;28.87;;
69047;SDS011;56119;50.118;8.642;2022-12-18T15:41:43;59.17;;;27.73;;
69047;SDS011;56119;50.118;8.642;2022-12-18T15:44:29;57.37;;;26.47;;
69047;SDS011;56119;50.118;8.642;2022-12-18T15:46:55;65.80;;;28.20;;
69047;SDS011;56119;50.118;8.642;2022-12-18T15:49:21;65.80;;;28.97;;
69047;SDS011;56119;50.118;8.642;2022-12-18T15:51:49;62.87;;;27.73;;
69047;SDS011;56119;50.118;8.642;2022-12-18T15:54:16;60.53;;;29.73;;
69047;SDS011;56119;50.118;8.642;2022-12-18T15:56:42;60.17;;;27.77;;
69047;SDS011;56119;50.118;8.642;2022-12-18T15:59:27;59.43;;;28.53;;
69047;SDS011;56119;50.118;8.642;2022-12-18T16:01:53;67.07;;;30.43;;
69047;SDS011;56119;50.118;8.642;2022-12-18T16:04:20;69.30;;;31.47;;
69047;SDS011;56119;50.118;8.642;2022-12-18T16:06:47;63.67;;;28.73;;
69047;SDS011;56119;50.118;8.642;2022-12-18T16:09:13;63.87;;;29.57;;
69047;SDS011;56119;50.118;8.642;2022-12-18T16:11:39;70.13;;;30.50;;
69047;SDS011;56119;50.118;8.642;2022-12-18T16:16:43;71.93;;;32.27;;